Cedar Springs, Michigan
Current Conditions -  °F | °C
As of 3:53 PM on Saturday 25 Oct 2014 (Local Time) from KGRR Reporting Station
Few Clouds Few Clouds  
Wind Chill: 65°   Ceiling: Unl
Heat Index: 65°   Visibility: 10mi
Dew Point: 36°   Wind: 26mph
Humidity: 34%   Direction: 280°W
Pressure: 29.82"   Gusts: 36mph
Location:  43.22°N, 85.55°W
Report Text: KGRR 251953Z 28023G31KT 10SM FEW200 18/02 A2982 RMK AO2 PK WND 27032/1926 SLP099 T01830022
Loading
Personal Weather Stations






























Interactive Weather Map
Tropical Storm Tracking
New forecast layout! Learn more

10-Day Weather Forecast

Advertisements
Track Severe Weather on mobile